Terminal Aerodrome Forecast
Issued by NWS

Home | Current Version | Previous Version | Text Only | Print | Product List | Glossary On
Versions: 1 2 3 4 5 6 7 8 9 10 11 12 13 14 15 16 17 18 19 20 21 22 23 24 25 26 27 28 29 30 31 32
855
FTUS41 KBUF 270537
TAFJHW
TAF
KJHW 270537Z 2706/2806 22007KT P6SM SCT040
     FM270900 20007KT P6SM FEW250
     FM271600 21012G18KT P6SM FEW250
     FM272100 22011KT P6SM SCT070
     FM272300 19007KT P6SM BKN070
     FM280300 17006KT P6SM SCT070
      AMD LTD TO CLD VIS AND WIND=

USA.gov is the U.S. government's official web portal to all federal, state and local government web resources and services.